This is the latest recevied weather packets stored in our database for station/object IU3NMQ-10. If no packets are shown the sender has not sent any weather packets the latest 10 day(s).
| Time | Temp. | Humidity | Pressure | Rain* | Wind** | Luminosity | Snow |
|---|---|---|---|---|---|---|---|
| 1777739169 | 25.56° C | 33% | 1016.2 hPa | - | - | - | - |
| 1777738269 | 25.56° C | 32% | 1016.4 hPa | - | - | - | - |
| 1777737369 | 26.11° C | 32% | 1016.5 hPa | - | - | - | - |
| 1777736469 | 26.11° C | 31% | 1016.5 hPa | - | - | - | - |
| 1777735569 | 26.67° C | 31% | 1016.7 hPa | - | - | - | - |
| 1777734669 | 26.67° C | 30% | 1016.8 hPa | - | - | - | - |
| 1777733768 | 27.78° C | 30% | 1017.1 hPa | - | - | - | - |
| 1777732868 | 28.33° C | 29% | 1017.2 hPa | - | - | - | - |
| 1777731968 | 31.67° C | 26% | 1017.4 hPa | - | - | - | - |
| 1777731068 | 30.56° C | 27% | 1017.5 hPa | - | - | - | - |
| 1777730203 | 34.44° C | 23% | 1017.6 hPa | - | - | - | - |
| 1777730168 | 34.44° C | 23% | 1017.6 hPa | - | - | - | - |
| 1777729268 | 28.89° C | 28% | 1017.9 hPa | - | - | - | - |
| 1777728368 | 28.89° C | 28% | 1018.1 hPa | - | - | - | - |
| 1777727468 | 28.89° C | 28% | 1018.2 hPa | - | - | - | - |
| 1777726568 | 29.44° C | 28% | 1018.4 hPa | - | - | - | - |
| 1777725669 | 29.44° C | 28% | 1018.7 hPa | - | - | - | - |
| 1777724767 | 28.89° C | 28% | 1018.8 hPa | - | - | - | - |
| 1777723867 | 29.44° C | 28% | 1019 hPa | - | - | - | - |
| 1777722967 | 28.89° C | 28% | 1019.1 hPa | - | - | - | - |
| 1777722067 | 28.89° C | 29% | 1019.3 hPa | - | - | - | - |
| 1777721167 | 28.33° C | 28% | 1019.6 hPa | - | - | - | - |
| 1777720266 | 28.33° C | 29% | 1019.8 hPa | - | - | - | - |
| 1777719366 | 27.78° C | 29% | 1020.1 hPa | - | - | - | - |
| 1777718466 | 27.22° C | 29% | 1020.1 hPa | - | - | - | - |
* Rain since midnight (hover to see other rain measurements)
** Current wind speed in m/s (hover to see current wind gust speed)